createdAt,value
2023-03-25T00:03:53.511Z,63.58
2023-03-25T00:14:17.221Z,63.89
2023-03-25T00:24:38.386Z,64.73
2023-03-25T00:35:00.290Z,64.79
2023-03-25T00:45:21.660Z,64.77
2023-03-25T00:55:42.937Z,64.94
2023-03-25T01:06:04.704Z,64.34
2023-03-25T01:16:26.346Z,64.88
2023-03-25T01:26:47.969Z,64.60
2023-03-25T01:37:10.295Z,64.75
2023-03-25T01:47:33.604Z,64.81
2023-03-25T01:57:57.290Z,65.19
2023-03-25T02:08:19.387Z,65.04
2023-03-25T02:18:46.781Z,65.44
2023-03-25T02:29:17.601Z,65.47
2023-03-25T02:40:14.863Z,65.39
2023-03-25T02:50:44.184Z,64.76
2023-03-25T03:01:05.848Z,65.01
2023-03-25T03:11:53.804Z,65.24
2023-03-25T03:22:27.085Z,65.31
2023-03-25T03:33:26.753Z,65.09
2023-03-25T03:44:09.309Z,65.36
2023-03-25T03:54:33.654Z,65.37
2023-03-25T04:04:54.831Z,65.19
2023-03-25T04:15:16.609Z,65.01
2023-03-25T04:25:37.661Z,65.19
2023-03-25T04:36:02.344Z,65.10
2023-03-25T04:46:23.735Z,65.14
2023-03-25T04:56:45.121Z,64.89
2023-03-25T05:07:06.265Z,65.12
2023-03-25T05:17:29.975Z,64.43
2023-03-25T05:27:51.432Z,64.37
2023-03-25T05:38:18.970Z,65.11
2023-03-25T05:48:41.715Z,64.73
2023-03-25T05:59:03.775Z,64.84
2023-03-25T06:09:25.128Z,64.90
2023-03-25T06:19:46.124Z,64.55
2023-03-25T06:30:12.606Z,63.88
2023-03-25T06:40:35.466Z,64.14
2023-03-25T06:50:58.290Z,64.20
2023-03-25T07:01:19.790Z,64.03
2023-03-25T07:11:40.950Z,64.43
2023-03-25T07:22:02.287Z,63.76
2023-03-25T07:32:23.670Z,63.79
2023-03-25T07:42:45.886Z,63.19
2023-03-25T07:53:10.739Z,63.75
2023-03-25T08:03:32.349Z,63.17
2023-03-25T08:13:53.838Z,62.58
2023-03-25T08:24:15.597Z,62.85
2023-03-25T08:34:40.048Z,62.34
2023-03-25T08:45:01.470Z,60.87
2023-03-25T08:55:22.712Z,60.75
2023-03-25T09:05:44.021Z,60.60
2023-03-25T09:16:05.473Z,59.87
2023-03-25T09:26:27.394Z,59.10
2023-03-25T09:36:48.605Z,60.00
2023-03-25T09:47:14.862Z,60.15
2023-03-25T09:57:46.598Z,59.63
2023-03-25T10:08:16.800Z,59.51
2023-03-25T10:18:43.765Z,59.11
2023-03-25T10:29:10.372Z,59.51
2023-03-25T10:39:40.240Z,59.82
2023-03-25T10:50:01.894Z,59.46
2023-03-25T11:00:26.460Z,58.76
2023-03-25T11:10:49.734Z,59.25
2023-03-25T11:21:14.822Z,58.80
2023-03-25T11:31:37.729Z,58.41
2023-03-25T11:41:59.253Z,57.80
2023-03-25T11:52:25.394Z,57.26
2023-03-25T12:02:46.938Z,57.01
2023-03-25T12:13:32.750Z,56.86
2023-03-25T12:24:22.452Z,56.40
2023-03-25T12:35:21.291Z,55.95
2023-03-25T12:46:00.299Z,56.01
2023-03-25T12:56:33.419Z,55.65
2023-03-25T13:07:04.496Z,56.36
2023-03-25T13:17:30.316Z,55.87
2023-03-25T13:27:53.436Z,54.50
2023-03-25T13:38:27.416Z,55.46
2023-03-25T13:49:03.673Z,55.92
2023-03-25T13:59:26.188Z,55.40
2023-03-25T14:10:09.399Z,56.30
2023-03-25T14:20:34.858Z,55.18
2023-03-25T14:31:17.021Z,56.44
2023-03-25T14:42:04.027Z,57.37
2023-03-25T14:52:46.945Z,57.26
2023-03-25T15:03:16.745Z,57.07
2023-03-25T15:13:53.588Z,57.44
2023-03-25T15:24:17.041Z,56.13
2023-03-25T15:34:56.931Z,57.13
2023-03-25T15:45:38.936Z,57.14
2023-03-25T15:56:14.228Z,57.93
2023-03-25T16:06:42.159Z,58.57
2023-03-25T16:17:05.910Z,58.74
2023-03-25T16:27:32.215Z,58.83
2023-03-25T16:38:00.135Z,59.12
2023-03-25T16:48:31.968Z,59.09
2023-03-25T16:59:26.273Z,59.76
2023-03-25T17:09:51.736Z,59.52
2023-03-25T17:20:23.528Z,59.25
2023-03-25T17:30:46.226Z,59.64
2023-03-25T17:41:09.284Z,59.14
2023-03-25T17:51:31.356Z,59.98
2023-03-25T18:01:52.899Z,58.49
2023-03-25T18:12:14.207Z,59.46
2023-03-25T18:22:35.688Z,58.99
2023-03-25T18:32:57.073Z,60.54
2023-03-25T18:43:18.848Z,60.27
2023-03-25T18:53:41.191Z,59.74
2023-03-25T19:04:02.663Z,59.32
2023-03-25T19:14:24.084Z,59.02
2023-03-25T19:24:47.114Z,59.81
2023-03-25T19:35:10.579Z,60.01
2023-03-25T19:45:32.777Z,59.88
2023-03-25T19:55:55.171Z,59.51
2023-03-25T20:06:16.988Z,59.64
2023-03-25T20:16:38.897Z,59.70
2023-03-25T20:27:00.026Z,60.16
2023-03-25T20:37:21.239Z,60.01
2023-03-25T20:47:43.274Z,59.64
2023-03-25T20:58:04.944Z,60.65
2023-03-25T21:08:30.512Z,59.89
2023-03-25T21:18:52.943Z,60.21
2023-03-25T21:29:14.017Z,59.70
2023-03-25T21:39:35.741Z,60.38
2023-03-25T21:49:56.926Z,59.59
2023-03-25T22:00:19.970Z,60.44
2023-03-25T22:10:41.386Z,59.91
2023-03-25T22:21:08.473Z,60.27
2023-03-25T22:31:31.941Z,60.42
2023-03-25T22:41:53.777Z,60.04
2023-03-25T22:52:14.764Z,60.27
2023-03-25T23:02:35.869Z,60.37
2023-03-25T23:12:57.218Z,60.35
2023-03-25T23:23:22.368Z,60.41
2023-03-25T23:33:43.963Z,60.51
2023-03-25T23:44:05.968Z,60.37
2023-03-25T23:54:27.842Z,60.31
